createdAt,value
2022-09-02T15:50:08.795Z,950.2432251
2022-09-02T15:51:09.677Z,950.2737427
2022-09-02T15:52:10.168Z,950.265564
2022-09-02T15:53:10.560Z,950.2003174
2022-09-02T15:54:10.999Z,950.1673584
2022-09-02T15:55:12.198Z,950.1790771
2022-09-02T15:56:12.604Z,950.1436157
2022-09-02T15:57:13.062Z,950.1151733
2022-09-02T15:58:13.480Z,950.0977173
2022-09-02T15:59:13.922Z,950.09375
2022-09-02T16:00:14.321Z,950.0918579
2022-09-02T16:01:14.770Z,950.1508789
2022-09-02T16:02:15.231Z,950.1896973
2022-09-02T16:03:46.090Z,950.2062378
2022-09-02T16:04:46.515Z,950.175293
2022-09-02T16:05:46.950Z,950.1515503
2022-09-02T16:06:47.364Z,950.1253052
2022-09-02T16:07:47.797Z,950.1081543
2022-09-02T16:08:48.205Z,950.1568604
2022-09-02T16:09:48.673Z,950.1019287
2022-09-02T16:10:49.085Z,950.0928345
2022-09-02T16:11:49.524Z,950.1079712
2022-09-02T16:12:49.976Z,950.0814209
2022-09-02T16:13:50.408Z,950.0949707
2022-09-02T16:14:51.508Z,950.0772705
2022-09-02T16:15:52.030Z,950.1085815
2022-09-02T16:16:52.568Z,950.0956421
2022-09-02T16:17:52.964Z,950.1281128
2022-09-02T16:18:53.409Z,950.1548462
2022-09-02T16:19:53.847Z,950.1574707
2022-09-02T16:20:55.035Z,950.2038574
2022-09-02T16:21:55.401Z,950.2081909
2022-09-02T16:22:55.836Z,950.2036133
2022-09-02T16:23:56.223Z,950.217041
2022-09-02T16:24:57.495Z,950.2090454
2022-09-02T16:25:57.942Z,950.2423706
2022-09-02T16:26:58.340Z,950.2109985
2022-09-02T16:27:58.789Z,950.2078247
2022-09-02T16:28:59.203Z,950.1864014
2022-09-02T16:29:59.673Z,950.1636963
2022-09-02T16:31:00.145Z,950.1989136
2022-09-02T16:32:27.259Z,950.1654663
2022-09-02T16:33:01.021Z,950.22229
2022-09-02T16:34:01.479Z,950.1911621
2022-09-02T16:35:02.494Z,950.1777954
2022-09-02T16:36:02.919Z,950.1936035
2022-09-02T16:37:03.296Z,950.1920166
2022-09-02T16:38:03.754Z,950.2373657
2022-09-02T16:39:04.732Z,950.2131348
2022-09-02T16:40:05.213Z,950.1853027
2022-09-02T16:41:05.599Z,950.1843872
2022-09-02T16:42:05.969Z,950.1723633
2022-09-02T16:43:06.361Z,950.2017822
2022-09-02T16:44:06.757Z,950.1928101
2022-09-02T16:45:07.987Z,950.1937256
2022-09-02T16:46:08.428Z,950.1674805
2022-09-02T16:47:08.775Z,950.1978149
2022-09-02T16:48:09.172Z,950.1444702
2022-09-02T16:49:09.656Z,950.1071777
2022-09-02T16:50:10.106Z,950.1246948
2022-09-02T16:51:11.510Z,950.149353
2022-09-02T16:52:11.879Z,950.1400757
2022-09-02T16:53:12.344Z,950.1400757
2022-09-02T16:54:17.716Z,950.1130981
2022-09-02T16:55:14.023Z,950.1398926
2022-09-02T16:56:14.433Z,950.0996094
2022-09-02T16:57:45.400Z,950.0682983
2022-09-02T16:58:45.859Z,950.0559082
2022-09-02T16:59:46.390Z,950.0252075
2022-09-02T17:00:46.804Z,950.0072632
2022-09-02T17:01:47.317Z,950.0076294
2022-09-02T17:02:47.774Z,949.9592896
2022-09-02T17:03:48.719Z,949.9831543
2022-09-02T17:04:49.118Z,949.9859619
2022-09-02T17:05:50.205Z,949.9638062
2022-09-02T17:06:50.626Z,949.9920044
2022-09-02T17:07:51.826Z,950.0106201
2022-09-02T17:08:52.351Z,950.0021973
2022-09-02T17:09:52.766Z,949.9974365
2022-09-02T17:10:53.176Z,950.0111694
2022-09-02T17:11:54.415Z,950.0020142
2022-09-02T17:12:54.023Z,949.9979858
2022-09-02T17:13:54.469Z,949.9953003
2022-09-02T17:14:54.893Z,949.9835205
2022-09-02T17:15:55.284Z,949.9737549
2022-09-02T17:16:55.845Z,949.9703369
2022-09-02T17:17:56.180Z,949.9717407
2022-09-02T17:18:56.627Z,949.9545288
2022-09-02T17:19:57.037Z,949.8612671
2022-09-02T17:20:58.033Z,949.8800049
2022-09-02T17:21:58.574Z,949.875
2022-09-02T17:22:58.933Z,949.8682861
2022-09-02T17:23:59.366Z,949.883728
2022-09-02T17:24:59.783Z,949.8688965
2022-09-02T17:26:00.730Z,949.8496704
2022-09-02T17:27:01.255Z,949.8571777
2022-09-02T17:28:01.626Z,949.8503418
2022-09-02T17:29:02.081Z,949.8279419
2022-09-02T17:30:02.471Z,949.866394
2022-09-02T17:31:02.964Z,949.880127
2022-09-02T17:32:03.322Z,949.845459
2022-09-02T17:33:04.515Z,949.8250122
2022-09-02T17:34:04.971Z,949.8320923
2022-09-02T17:35:05.365Z,949.8739014
2022-09-02T17:36:06.706Z,949.8517456
2022-09-02T17:37:07.153Z,949.8152466
2022-09-02T17:38:07.558Z,949.8442383
2022-09-02T17:39:07.997Z,949.8143921
2022-09-02T17:40:08.444Z,949.8125
2022-09-02T17:41:09.510Z,949.7943726
2022-09-02T17:42:09.963Z,949.8174438
2022-09-02T17:43:10.375Z,949.828064
2022-09-02T17:44:10.777Z,949.8595581
2022-09-02T17:45:11.447Z,949.8001709
2022-09-02T17:46:12.794Z,949.8584595
2022-09-02T17:47:13.162Z,949.8157959
2022-09-02T17:48:35.728Z,949.8793945
2022-09-02T17:49:45.191Z,949.8623657
2022-09-02T17:50:46.527Z,949.8845215
2022-09-02T17:51:46.948Z,949.8696899
2022-09-02T17:52:47.405Z,949.8804932
2022-09-02T17:53:47.801Z,949.8632813
2022-09-02T17:54:48.227Z,949.8726807
2022-09-02T17:55:49.519Z,949.848877
2022-09-02T17:56:49.964Z,949.8220825
2022-09-02T17:57:50.534Z,949.8195801
2022-09-02T17:58:50.896Z,949.767334
2022-09-02T17:59:51.167Z,949.8088379
2022-09-02T18:00:51.599Z,949.7853394
2022-09-02T18:01:52.017Z,949.8112793
2022-09-02T18:02:54.555Z,949.8297119
2022-09-02T18:03:53.748Z,949.8018799
2022-09-02T18:04:54.126Z,949.8186035
2022-09-02T18:05:55.242Z,949.8081055
2022-09-02T18:06:55.672Z,949.8389893
2022-09-02T18:07:56.076Z,949.8278198
2022-09-02T18:08:56.495Z,949.7886963
2022-09-02T18:09:57.907Z,949.798584
2022-09-02T18:10:59.365Z,949.7388306
2022-09-02T18:11:59.889Z,949.7532959
2022-09-02T18:13:00.461Z,949.7051392
2022-09-02T18:14:00.833Z,949.7040405
2022-09-02T18:15:01.804Z,949.757019
2022-09-02T18:16:02.856Z,949.7246094
2022-09-02T18:17:03.540Z,949.7645264
2022-09-02T18:18:04.012Z,949.7401733
2022-09-02T18:19:04.316Z,949.7125854
2022-09-02T18:20:04.761Z,949.7045288
2022-09-02T18:21:05.279Z,949.6843872
2022-09-02T18:22:06.488Z,949.7129517
2022-09-02T18:23:06.435Z,949.6901855
2022-09-02T18:24:06.842Z,949.6986084
2022-09-02T18:25:07.340Z,949.713623
2022-09-02T18:26:07.833Z,949.6694336
2022-09-02T18:27:08.373Z,949.6557617
2022-09-02T18:28:08.997Z,949.6743774
2022-09-02T18:29:09.412Z,949.663208
2022-09-02T18:30:09.812Z,949.687439
2022-09-02T18:31:10.503Z,949.6785889
2022-09-02T18:32:11.027Z,949.6987305
2022-09-02T18:33:11.812Z,949.6769409
2022-09-02T18:34:12.211Z,949.6567383
2022-09-02T18:35:12.616Z,949.6345215
2022-09-02T18:36:44.824Z,949.642334
2022-09-02T18:37:44.898Z,949.6228027
2022-09-02T18:38:45.300Z,949.6158447
2022-09-02T18:39:45.742Z,949.6515503
2022-09-02T18:40:46.370Z,949.6233521
2022-09-02T18:41:46.967Z,949.630127
2022-09-02T18:42:47.541Z,949.6437378
2022-09-02T18:43:48.127Z,949.6137695
2022-09-02T18:44:48.398Z,949.6243896
2022-09-02T18:45:49.649Z,949.6257935
2022-09-02T18:46:50.179Z,949.5907593
2022-09-02T18:47:50.694Z,949.6019287
2022-09-02T18:48:53.530Z,949.5942383
2022-09-02T18:49:51.536Z,949.6160889
2022-09-02T18:50:52.644Z,949.6098633
2022-09-02T18:51:53.249Z,949.6596069
2022-09-02T18:52:53.747Z,949.5924072
2022-09-02T18:53:54.313Z,949.6165771
2022-09-02T18:54:54.583Z,949.6203003
2022-09-02T18:55:56.116Z,949.600769
2022-09-02T18:56:56.696Z,949.6134644
2022-09-02T18:57:57.333Z,949.6141968
2022-09-02T18:58:57.792Z,949.6088867
2022-09-02T18:59:58.173Z,949.6132813
2022-09-02T19:00:58.913Z,949.6373291
2022-09-02T19:01:59.506Z,949.6810303
2022-09-02T19:02:59.965Z,949.6459351
2022-09-02T19:04:01.259Z,949.647644
2022-09-02T19:05:01.753Z,949.6575928
2022-09-02T19:06:03.172Z,949.6790771
2022-09-02T19:07:03.760Z,949.7008057
2022-09-02T19:08:04.251Z,949.7527466
2022-09-02T19:09:04.667Z,949.7510986
2022-09-02T19:10:05.055Z,949.7957764
2022-09-02T19:11:05.546Z,949.8401489
2022-09-02T19:12:06.253Z,949.8306274
2022-09-02T19:13:06.890Z,949.8379517
2022-09-02T19:14:07.318Z,949.8851318
2022-09-02T19:15:07.667Z,949.8261108
2022-09-02T19:16:09.206Z,949.8359375
2022-09-02T19:17:09.824Z,949.8121948
2022-09-02T19:18:10.388Z,949.866394
2022-09-02T19:19:10.796Z,949.8079834
2022-09-02T19:20:11.448Z,949.866394
2022-09-02T19:21:13.293Z,949.9371948
2022-09-02T19:22:44.250Z,949.9117432
2022-09-02T19:23:44.851Z,949.9263916
2022-09-02T19:24:45.317Z,949.9956055
2022-09-02T19:25:45.681Z,950.0072021
2022-09-02T19:26:47.097Z,950.0300293
2022-09-02T19:27:47.690Z,949.9888916
2022-09-02T19:28:48.186Z,949.9855957
2022-09-02T19:29:48.664Z,950.010498
2022-09-02T19:30:50.071Z,949.9504395
2022-09-02T19:31:50.697Z,949.9224854
2022-09-02T19:32:51.321Z,949.8336792
2022-09-02T19:33:52.063Z,949.8446045
2022-09-02T19:34:52.628Z,949.838623
2022-09-02T19:35:53.083Z,949.8470459
2022-09-02T19:36:54.529Z,949.8476563
2022-09-02T19:37:55.169Z,949.8421631
2022-09-02T19:38:55.750Z,949.8966675
2022-09-02T19:39:59.447Z,949.911377
2022-09-02T19:40:56.700Z,949.8908081
2022-09-02T19:41:57.227Z,949.8843994
2022-09-02T19:42:57.833Z,949.8554688
2022-09-02T19:43:58.414Z,949.8703003
2022-09-02T19:44:58.947Z,949.9039307
2022-09-02T19:46:00.206Z,949.8886108
2022-09-02T19:48:08.595Z,949.9154663
2022-09-02T19:49:02.552Z,949.9517822
2022-09-02T19:50:02.993Z,949.9364014
2022-09-02T19:51:03.356Z,949.9389038
2022-09-02T19:52:03.741Z,949.9472046
2022-09-02T19:53:04.368Z,949.9529419
2022-09-02T19:54:04.915Z,949.9207764
2022-09-02T19:55:05.574Z,949.8987427
2022-09-02T19:56:05.857Z,949.8510132
2022-09-02T19:57:06.393Z,949.8098145
2022-09-02T19:58:07.038Z,949.7895508
2022-09-02T19:59:07.658Z,949.7983398
2022-09-02T20:00:08.172Z,949.8395386
2022-09-02T20:01:08.585Z,949.8275146
2022-09-02T20:02:08.991Z,949.805481
2022-09-02T20:03:09.596Z,949.7947388
2022-09-02T20:04:10.173Z,949.772644
2022-09-02T20:05:10.721Z,949.8023682
2022-09-02T20:06:12.051Z,949.8110962
2022-09-02T20:07:42.871Z,949.7718506
2022-09-02T20:08:43.556Z,949.7606812
2022-09-02T20:09:44.238Z,949.7573242
2022-09-02T20:10:44.706Z,949.7765503
2022-09-02T20:11:45.091Z,949.8240356
2022-09-02T20:12:45.492Z,949.7567749
2022-09-02T20:13:46.158Z,949.8013306
2022-09-02T20:14:46.756Z,949.8459473
2022-09-02T20:15:47.243Z,949.8482666
2022-09-02T20:16:48.337Z,949.8392944
2022-09-02T20:17:48.832Z,949.8591919
2022-09-02T20:18:49.525Z,949.9060669
2022-09-02T20:19:50.085Z,949.9299927
2022-09-02T20:20:51.570Z,949.9515381
2022-09-02T20:21:51.958Z,949.9821777
2022-09-02T20:22:52.394Z,949.9996948
2022-09-02T20:23:53.108Z,950.0334473
2022-09-02T20:24:53.674Z,950.0671997
2022-09-02T20:25:54.235Z,950.0649414
2022-09-02T20:26:54.605Z,950.0734253
2022-09-02T20:27:55.009Z,950.116272
2022-09-02T20:28:55.613Z,950.1552124
2022-09-02T20:29:56.119Z,950.1204834
2022-09-02T20:30:56.613Z,950.1495361
2022-09-02T20:31:57.070Z,950.1045532
2022-09-02T20:32:57.407Z,950.1233521
2022-09-02T20:33:58.025Z,950.0889282
2022-09-02T20:34:58.684Z,950.1079102
2022-09-02T20:35:59.313Z,950.1074829
2022-09-02T20:37:00.259Z,950.0910645
2022-09-02T20:38:00.624Z,950.1140747
2022-09-02T20:39:01.258Z,950.1038208
2022-09-02T20:40:02.012Z,950.0873413
2022-09-02T20:41:02.526Z,950.0661011
2022-09-02T20:42:02.953Z,950.0767212
2022-09-02T20:43:03.366Z,950.0209351
2022-09-02T20:44:07.036Z,950.0883789
2022-09-02T20:45:04.558Z,950.0457764
2022-09-02T20:46:05.135Z,950.0638428
2022-09-02T20:47:06.379Z,950.0819702
2022-09-02T20:48:06.804Z,950.0973511
2022-09-02T20:49:07.348Z,950.1155396
2022-09-02T20:50:07.956Z,950.0901489
2022-09-02T20:51:09.272Z,950.1293945
2022-09-02T20:52:09.561Z,950.1031494
2022-09-02T20:53:09.947Z,950.1278076
2022-09-02T20:54:10.528Z,950.1115112
2022-09-02T20:55:11.132Z,950.1754761
2022-09-02T20:56:43.082Z,950.2111816
2022-09-02T20:57:43.460Z,950.2415771
2022-09-02T20:58:43.921Z,950.2473145
2022-09-02T20:59:44.534Z,950.2654419
2022-09-02T21:00:45.157Z,950.2340698
2022-09-02T21:01:45.801Z,950.2438965
2022-09-02T21:02:46.066Z,950.2473145
2022-09-02T21:03:46.475Z,950.2539063
2022-09-02T21:04:47.032Z,950.1938477
2022-09-02T21:05:47.656Z,950.243103
2022-09-02T21:06:49.089Z,950.2316895
2022-09-02T21:07:49.459Z,950.1899414
2022-09-02T21:08:50.552Z,950.2106323
2022-09-02T21:09:51.070Z,950.2114258
2022-09-02T21:10:51.631Z,950.208252
2022-09-02T21:11:52.253Z,950.1903076
2022-09-02T21:12:52.689Z,950.1852417
2022-09-02T21:13:53.135Z,950.2115479
2022-09-02T21:14:53.677Z,950.1721802
2022-09-02T21:15:54.354Z,950.178894
2022-09-02T21:16:55.662Z,950.184082
2022-09-02T21:17:56.023Z,950.1682739
2022-09-02T21:18:56.427Z,950.1576538
2022-09-02T21:19:56.823Z,950.1143799
2022-09-02T21:20:58.061Z,950.1166992
2022-09-02T21:21:58.490Z,950.1020508
2022-09-02T21:22:58.874Z,950.0872803
2022-09-02T21:23:59.287Z,950.0915527
2022-09-02T21:24:59.722Z,950.0784302
2022-09-02T21:26:00.124Z,950.0826416
2022-09-02T21:27:01.080Z,950.052124
2022-09-02T21:28:01.471Z,950.0562744
2022-09-02T21:29:01.861Z,950.0563965
2022-09-02T21:30:02.919Z,950.0424805
2022-09-02T21:31:02.757Z,950.0665894
2022-09-02T21:32:03.162Z,950.0598145
2022-09-02T21:33:03.523Z,950.0739746
2022-09-02T21:34:03.927Z,950.0526733
2022-09-02T21:35:04.339Z,950.0585938
2022-09-02T21:36:04.755Z,950.0618896
2022-09-02T21:37:06.080Z,950.0457153
2022-09-02T21:38:06.450Z,950.041748
2022-09-02T21:39:06.868Z,950.0334473
2022-09-02T21:40:07.266Z,949.9992676
2022-09-02T21:41:07.663Z,949.9927979
2022-09-02T21:42:08.077Z,949.9954834
2022-09-02T21:43:08.481Z,949.993103
2022-09-02T21:44:08.892Z,949.9782715
2022-09-02T21:45:09.324Z,950.0006104
2022-09-02T21:46:09.912Z,950.017334
2022-09-02T21:47:11.107Z,949.9707642
2022-09-02T21:48:41.688Z,950.0473633
2022-09-02T21:49:42.103Z,950.0991211
2022-09-02T21:50:42.495Z,950.1133423
2022-09-02T21:51:42.888Z,950.1748657
2022-09-02T21:52:43.303Z,950.2242432
2022-09-02T21:53:43.696Z,950.3233032
2022-09-02T21:54:44.090Z,950.3756104
2022-09-02T21:55:44.495Z,950.4454956
2022-09-02T21:56:44.897Z,950.5549316
2022-09-02T21:57:46.277Z,950.6150513
2022-09-02T21:58:46.646Z,950.6490479
2022-09-02T21:59:47.053Z,950.7059937
2022-09-02T22:00:47.492Z,950.710083
2022-09-02T22:01:47.939Z,950.7276611
2022-09-02T22:02:48.320Z,950.7321777
2022-09-02T22:03:48.706Z,950.8439941
2022-09-02T22:04:49.109Z,950.9116211
2022-09-02T22:05:49.507Z,951.0042114
2022-09-02T22:06:50.569Z,951.0092163
2022-09-02T22:07:51.041Z,950.9397583
2022-09-02T22:08:52.244Z,950.9572144
2022-09-02T22:09:52.633Z,950.9254761
2022-09-02T22:10:53.127Z,950.9224243
2022-09-02T22:11:53.428Z,950.9384155
2022-09-02T22:12:53.867Z,951.0197144
2022-09-02T22:13:54.251Z,951.0371704
2022-09-02T22:14:54.655Z,951.0734253
2022-09-02T22:15:55.104Z,951.055603
2022-09-02T22:16:56.064Z,951.0253296
2022-09-02T22:17:56.473Z,951.0100098
2022-09-02T22:18:57.778Z,950.9862671
2022-09-02T22:19:58.181Z,950.9771118
2022-09-02T22:20:58.606Z,950.8973389
2022-09-02T22:21:59.005Z,950.8892822
2022-09-02T22:22:59.460Z,950.8474731
2022-09-02T22:24:00.572Z,950.8482666
2022-09-02T22:25:00.966Z,950.9229736
2022-09-02T22:26:01.461Z,950.9926758
2022-09-02T22:27:02.303Z,951.0907593
2022-09-02T22:28:02.741Z,951.1621704
2022-09-02T22:29:03.778Z,951.2270508
2022-09-02T22:30:04.191Z,951.3041992
2022-09-02T22:31:04.641Z,951.4346924
2022-09-02T22:32:04.962Z,951.5085449
2022-09-02T22:33:05.424Z,951.6287231
2022-09-02T22:34:05.806Z,951.6723633
2022-09-02T22:35:06.232Z,951.6051636
2022-09-02T22:36:06.665Z,951.5018921
2022-09-02T22:37:07.586Z,951.4099731
2022-09-02T22:38:08.045Z,951.3726807
2022-09-02T22:39:08.421Z,951.3341675
2022-09-02T22:40:08.818Z,951.2692261
2022-09-02T22:41:09.411Z,951.2913818
2022-09-02T22:42:09.634Z,951.3638916
2022-09-02T22:43:10.516Z,951.366333
2022-09-02T22:44:41.076Z,951.367981
2022-09-02T22:45:41.722Z,951.3178101
2022-09-02T22:46:42.203Z,951.3005371
2022-09-02T22:47:43.272Z,951.3137207
2022-09-02T22:48:43.700Z,951.3382568
2022-09-02T22:49:44.091Z,951.3532715
2022-09-02T22:50:45.071Z,951.3729858
2022-09-02T22:51:45.521Z,951.3803711
2022-09-02T22:52:45.958Z,951.4508667
2022-09-02T22:53:46.356Z,951.4573364
2022-09-02T22:54:46.715Z,951.3998413
2022-09-02T22:55:47.262Z,951.2980957
2022-09-02T22:56:47.522Z,951.1872559
2022-09-02T22:57:48.798Z,951.2003174
2022-09-02T22:58:49.193Z,951.3085938
2022-09-02T22:59:49.590Z,951.3859253
2022-09-02T23:00:50.019Z,951.335022
2022-09-02T23:01:50.456Z,951.2957153
2022-09-02T23:02:50.784Z,951.1807861
2022-09-02T23:03:51.308Z,951.2218628
2022-09-02T23:04:51.603Z,951.2006226
2022-09-02T23:05:52.000Z,951.2283325
2022-09-02T23:06:52.393Z,951.185791
2022-09-02T23:07:53.769Z,951.1651611
2022-09-02T23:08:54.227Z,951.1218262
2022-09-02T23:09:58.613Z,951.0981445
2022-09-02T23:10:55.002Z,951.0783081
2022-09-02T23:11:55.409Z,950.9935913
2022-09-02T23:12:56.581Z,950.9749756
2022-09-02T23:13:56.993Z,950.9534302
2022-09-02T23:14:57.378Z,950.9677124
2022-09-02T23:15:57.862Z,950.9587402
2022-09-02T23:16:58.215Z,950.9855957
2022-09-02T23:17:59.277Z,950.9816895
2022-09-02T23:18:59.695Z,951.0367432
2022-09-02T23:20:00.144Z,950.9564209
2022-09-02T23:21:01.080Z,951.053833
2022-09-02T23:22:01.478Z,951.0801392
2022-09-02T23:23:01.867Z,951.0645142
2022-09-02T23:24:02.297Z,951.1121216
2022-09-02T23:25:02.693Z,951.1303101
2022-09-02T23:26:03.119Z,951.0893555
2022-09-02T23:27:04.081Z,951.0812378
2022-09-02T23:28:04.479Z,951.0804443
2022-09-02T23:29:05.612Z,951.0910645
2022-09-02T23:30:05.997Z,951.0847168
2022-09-02T23:31:06.522Z,951.1264648
2022-09-02T23:32:06.873Z,951.164978
2022-09-02T23:33:07.256Z,951.1789551
2022-09-02T23:34:07.697Z,951.1518555
2022-09-02T23:35:08.037Z,951.138916
2022-09-02T23:36:08.435Z,951.1018677
2022-09-02T23:37:08.829Z,951.1338501
2022-09-02T23:38:40.186Z,951.1126709
2022-09-02T23:39:40.664Z,951.0869751
2022-09-02T23:40:41.585Z,951.1057739
2022-09-02T23:41:41.965Z,951.0773315
2022-09-02T23:42:42.361Z,951.0165405
2022-09-02T23:43:42.755Z,951.0214233
2022-09-02T23:44:43.208Z,950.9985962
2022-09-02T23:45:43.580Z,951.0212402
2022-09-02T23:46:44.038Z,951.0287476
2022-09-02T23:47:45.087Z,951.0197144
2022-09-02T23:48:45.515Z,951.0385742
2022-09-02T23:49:45.959Z,950.9968872
2022-09-02T23:50:47.105Z,950.9550171
2022-09-02T23:51:47.504Z,950.9400635
2022-09-02T23:52:47.899Z,950.9646606
2022-09-02T23:53:48.299Z,950.9452515
2022-09-02T23:54:50.994Z,950.939209
2022-09-02T23:55:49.169Z,950.9098511
2022-09-02T23:56:49.616Z,950.8588867
2022-09-02T23:57:50.594Z,950.9562988
2022-09-02T23:58:50.978Z,950.999939
2022-09-02T23:59:51.403Z,951.045166
